createdAt,value
2023-01-08T00:02:01.034Z,2.50
2023-01-08T00:04:27.612Z,2.50
2023-01-08T00:06:53.885Z,2.40
2023-01-08T00:09:20.431Z,2.40
2023-01-08T00:11:48.629Z,2.40
2023-01-08T00:14:15.583Z,2.40
2023-01-08T00:16:41.918Z,2.40
2023-01-08T00:19:10.076Z,2.50
2023-01-08T00:21:36.353Z,2.50
2023-01-08T00:24:03.754Z,2.40
2023-01-08T00:26:30.155Z,2.40
2023-01-08T00:28:57.119Z,2.30
2023-01-08T00:31:24.550Z,2.30
2023-01-08T00:33:51.360Z,2.40
2023-01-08T00:36:18.812Z,2.40
2023-01-08T00:38:46.451Z,2.40
2023-01-08T00:41:14.278Z,2.40
2023-01-08T00:43:41.214Z,2.50
2023-01-08T00:46:07.839Z,2.50
2023-01-08T00:48:38.054Z,2.50
2023-01-08T00:51:06.588Z,2.50
2023-01-08T00:53:33.530Z,2.50
2023-01-08T00:56:06.009Z,2.50
2023-01-08T01:00:59.927Z,2.50
2023-01-08T01:03:26.716Z,2.50
2023-01-08T01:06:05.770Z,2.50
2023-01-08T01:08:33.741Z,2.50
2023-01-08T01:11:00.148Z,2.40
2023-01-08T01:13:27.964Z,2.40
2023-01-08T01:15:59.100Z,2.40
2023-01-08T01:18:26.887Z,2.40
2023-01-08T01:20:53.619Z,2.50
2023-01-08T01:23:20.449Z,2.40
2023-01-08T01:25:46.759Z,2.40
2023-01-08T01:28:13.383Z,2.40
2023-01-08T01:30:39.679Z,2.50
2023-01-08T01:33:06.675Z,2.50
2023-01-08T01:35:32.936Z,2.50
2023-01-08T01:37:59.594Z,2.50
2023-01-08T01:40:25.930Z,2.50
2023-01-08T01:42:52.729Z,2.50
2023-01-08T01:45:21.645Z,2.50
2023-01-08T01:48:09.005Z,2.50
2023-01-08T01:50:48.015Z,2.50
2023-01-08T01:53:29.895Z,2.50
2023-01-08T01:55:57.089Z,2.50
2023-01-08T01:58:27.211Z,2.40
2023-01-08T02:00:56.560Z,2.40
2023-01-08T02:03:25.521Z,2.40
2023-01-08T02:05:59.921Z,2.40
2023-01-08T02:08:39.222Z,2.40
2023-01-08T02:11:10.394Z,2.30
2023-01-08T02:13:42.287Z,2.30
2023-01-08T02:16:18.319Z,2.30
2023-01-08T02:18:54.772Z,2.20
2023-01-08T02:21:48.023Z,2.20
2023-01-08T02:24:39.468Z,2.20
2023-01-08T02:27:08.262Z,2.10
2023-01-08T02:29:35.247Z,2.10
2023-01-08T02:32:01.687Z,2.10
2023-01-08T02:34:31.338Z,2.10
2023-01-08T02:36:59.713Z,2.10
2023-01-08T02:39:44.728Z,2.00
2023-01-08T02:42:28.181Z,2.00
2023-01-08T02:45:15.985Z,1.90
2023-01-08T02:47:46.387Z,2.00
2023-01-08T02:50:23.175Z,2.00
2023-01-08T02:53:21.856Z,2.00
2023-01-08T02:56:03.173Z,1.90
2023-01-08T02:58:31.359Z,1.90
2023-01-08T03:01:00.989Z,2.00
2023-01-08T03:03:29.473Z,2.00
2023-01-08T03:06:03.065Z,2.10
2023-01-08T03:08:29.633Z,2.20
2023-01-08T03:11:06.498Z,2.20
2023-01-08T03:16:06.834Z,2.20
2023-01-08T03:18:37.686Z,2.50
2023-01-08T03:21:05.714Z,2.20
2023-01-08T03:23:35.382Z,2.20
2023-01-08T03:26:04.353Z,2.20
2023-01-08T03:28:36.611Z,2.20
2023-01-08T03:31:04.847Z,2.10
2023-01-08T03:33:32.624Z,2.20
2023-01-08T03:36:02.647Z,2.20
2023-01-08T03:38:33.843Z,2.20
2023-01-08T03:41:09.121Z,2.20
2023-01-08T03:43:35.671Z,2.20
2023-01-08T03:46:06.836Z,2.10
2023-01-08T03:48:34.946Z,2.20
2023-01-08T03:51:01.676Z,2.20
2023-01-08T03:53:28.278Z,2.20
2023-01-08T03:55:56.531Z,2.20
2023-01-08T03:58:22.799Z,2.20
2023-01-08T04:00:49.670Z,2.20
2023-01-08T04:03:15.955Z,2.20
2023-01-08T04:05:42.783Z,2.30
2023-01-08T04:08:09.048Z,2.30
2023-01-08T04:10:35.617Z,2.30
2023-01-08T04:13:01.998Z,2.30
2023-01-08T04:15:28.648Z,2.40
2023-01-08T04:17:55.145Z,2.30
2023-01-08T04:20:21.965Z,2.40
2023-01-08T04:22:48.251Z,2.30
2023-01-08T04:25:15.087Z,2.40
2023-01-08T04:27:41.389Z,2.40
2023-01-08T04:30:08.621Z,2.30
2023-01-08T04:32:34.874Z,2.30
2023-01-08T04:35:01.460Z,2.20
2023-01-08T04:37:27.772Z,2.20
2023-01-08T04:39:54.675Z,2.10
2023-01-08T04:42:20.964Z,2.10
2023-01-08T04:44:47.723Z,2.10
2023-01-08T04:47:14.503Z,2.10
2023-01-08T04:49:41.432Z,2.20
2023-01-08T04:52:07.854Z,2.20
2023-01-08T04:54:34.458Z,2.10
2023-01-08T04:57:00.723Z,2.10
2023-01-08T04:59:27.318Z,2.10
2023-01-08T05:01:53.780Z,2.10
2023-01-08T05:04:20.381Z,2.10
2023-01-08T05:06:46.783Z,2.10
2023-01-08T05:09:13.338Z,2.10
2023-01-08T05:11:39.684Z,2.10
2023-01-08T05:14:06.321Z,2.00
2023-01-08T05:16:32.668Z,2.00
2023-01-08T05:18:59.333Z,2.00
2023-01-08T05:21:25.626Z,2.00
2023-01-08T05:23:52.343Z,2.10
2023-01-08T05:26:18.713Z,2.00
2023-01-08T05:28:45.332Z,2.10
2023-01-08T05:31:11.877Z,2.10
2023-01-08T05:33:39.107Z,2.10
2023-01-08T05:36:09.450Z,2.10
2023-01-08T05:38:36.282Z,2.20
2023-01-08T05:41:03.223Z,2.10
2023-01-08T05:43:30.053Z,2.20
2023-01-08T05:46:00.736Z,2.30
2023-01-08T05:48:28.923Z,2.10
2023-01-08T05:50:55.482Z,2.20
2023-01-08T05:53:22.384Z,2.30
2023-01-08T05:55:48.731Z,2.30
2023-01-08T05:58:18.373Z,2.20
2023-01-08T06:00:45.444Z,2.20
2023-01-08T06:03:12.372Z,2.20
2023-01-08T06:05:38.678Z,2.20
2023-01-08T06:08:07.174Z,2.30
2023-01-08T06:10:36.512Z,2.30
2023-01-08T06:13:06.927Z,2.30
2023-01-08T06:15:33.213Z,2.30
2023-01-08T06:18:03.971Z,2.40
2023-01-08T06:20:30.492Z,2.40
2023-01-08T06:22:57.703Z,2.40
2023-01-08T06:25:24.175Z,2.40
2023-01-08T06:27:51.852Z,2.40
2023-01-08T06:30:18.424Z,2.50
2023-01-08T06:32:45.311Z,2.40
2023-01-08T06:35:11.585Z,2.40
2023-01-08T06:37:38.622Z,2.40
2023-01-08T06:40:05.466Z,2.50
2023-01-08T06:42:32.124Z,2.50
2023-01-08T06:44:58.399Z,2.50
2023-01-08T06:47:25.006Z,2.50
2023-01-08T06:49:58.600Z,2.50
2023-01-08T06:52:25.305Z,2.60
2023-01-08T06:54:51.635Z,2.60
2023-01-08T06:57:18.509Z,2.50
2023-01-08T06:59:44.872Z,2.50
2023-01-08T07:02:14.205Z,2.50
2023-01-08T07:04:40.890Z,2.50
2023-01-08T07:07:07.993Z,2.60
2023-01-08T07:09:34.985Z,2.60
2023-01-08T07:12:01.864Z,2.60
2023-01-08T07:14:28.116Z,2.60
2023-01-08T07:16:54.995Z,2.60
2023-01-08T07:19:21.372Z,2.60
2023-01-08T07:21:48.037Z,2.70
2023-01-08T07:24:14.393Z,2.60
2023-01-08T07:26:41.207Z,2.70
2023-01-08T07:29:07.633Z,2.60
2023-01-08T07:31:34.651Z,2.70
2023-01-08T07:34:01.051Z,2.70
2023-01-08T07:36:27.705Z,2.70
2023-01-08T07:38:54.059Z,2.80
2023-01-08T07:41:20.586Z,2.80
2023-01-08T07:43:47.789Z,2.80
2023-01-08T07:46:15.633Z,2.90
2023-01-08T07:48:41.997Z,2.90
2023-01-08T07:51:09.329Z,2.80
2023-01-08T07:53:36.914Z,2.90
2023-01-08T07:56:09.251Z,2.90
2023-01-08T07:58:35.608Z,2.90
2023-01-08T08:01:03.382Z,2.90
2023-01-08T08:03:29.719Z,2.90
2023-01-08T08:05:56.866Z,3.00
2023-01-08T08:08:23.249Z,3.00
2023-01-08T08:10:49.905Z,3.00
2023-01-08T08:13:16.179Z,3.00
2023-01-08T08:15:42.899Z,3.00
2023-01-08T08:18:09.844Z,3.00
2023-01-08T08:20:37.305Z,3.00
2023-01-08T08:23:09.163Z,3.00
2023-01-08T08:25:36.424Z,3.10
2023-01-08T08:28:04.055Z,3.10
2023-01-08T08:30:33.228Z,3.20
2023-01-08T08:33:01.210Z,3.20
2023-01-08T08:35:28.971Z,3.30
2023-01-08T08:37:56.199Z,3.40
2023-01-08T08:40:23.521Z,3.50
2023-01-08T08:42:58.668Z,3.50
2023-01-08T08:45:26.619Z,3.50
2023-01-08T08:47:53.111Z,3.60
2023-01-08T08:50:20.944Z,3.80
2023-01-08T08:52:48.295Z,3.70
2023-01-08T08:55:16.711Z,3.90
2023-01-08T08:57:44.718Z,4.00
2023-01-08T09:00:12.762Z,4.10
2023-01-08T09:02:39.395Z,4.20
2023-01-08T09:05:06.543Z,4.10
2023-01-08T09:07:33.168Z,4.10
2023-01-08T09:09:59.753Z,4.10
2023-01-08T09:12:26.219Z,4.20
2023-01-08T09:14:54.164Z,4.30
2023-01-08T09:17:20.966Z,4.30
2023-01-08T09:19:47.561Z,4.50
2023-01-08T09:22:14.093Z,4.50
2023-01-08T09:24:40.661Z,4.60
2023-01-08T09:27:08.461Z,4.70
2023-01-08T09:29:36.466Z,4.70
2023-01-08T09:32:06.700Z,4.90
2023-01-08T09:34:35.547Z,5.00
2023-01-08T09:37:02.652Z,5.00
2023-01-08T09:39:29.251Z,5.00
2023-01-08T09:41:58.270Z,4.90
2023-01-08T09:44:30.402Z,4.80
2023-01-08T09:46:57.755Z,4.70
2023-01-08T09:49:47.104Z,4.60
2023-01-08T09:52:15.004Z,4.50
2023-01-08T09:54:41.934Z,4.50
2023-01-08T09:57:19.531Z,4.50
2023-01-08T09:59:47.645Z,4.50
2023-01-08T10:02:22.650Z,4.50
2023-01-08T10:04:57.329Z,4.50
2023-01-08T10:07:27.540Z,4.60
2023-01-08T10:09:55.257Z,4.70
2023-01-08T10:12:28.072Z,4.70
2023-01-08T10:14:56.377Z,4.80
2023-01-08T10:17:27.676Z,4.90
2023-01-08T10:19:54.673Z,4.90
2023-01-08T10:22:24.045Z,5.00
2023-01-08T10:24:51.480Z,5.00
2023-01-08T10:27:19.566Z,5.00
2023-01-08T10:29:46.352Z,5.00
2023-01-08T10:32:36.439Z,5.10
2023-01-08T10:35:07.246Z,5.10
2023-01-08T10:37:41.667Z,5.10
2023-01-08T10:40:37.864Z,5.20
2023-01-08T10:43:29.723Z,5.30
2023-01-08T10:46:02.607Z,5.40
2023-01-08T10:48:44.226Z,5.30
2023-01-08T10:51:18.391Z,5.40
2023-01-08T10:53:44.749Z,5.40
2023-01-08T10:56:29.827Z,5.40
2023-01-08T10:58:56.393Z,5.50
2023-01-08T11:01:25.994Z,5.50
2023-01-08T11:04:21.255Z,5.40
2023-01-08T11:06:48.171Z,5.50
2023-01-08T11:09:30.484Z,5.50
2023-01-08T11:11:58.108Z,5.40
2023-01-08T11:14:37.525Z,5.30
2023-01-08T11:17:11.078Z,5.30
2023-01-08T11:19:39.188Z,5.30
2023-01-08T11:22:20.966Z,5.30
2023-01-08T11:24:49.860Z,5.30
2023-01-08T11:27:26.249Z,5.30
2023-01-08T11:30:12.389Z,5.30
2023-01-08T11:32:42.105Z,5.30
2023-01-08T11:35:18.416Z,5.30
2023-01-08T11:37:59.423Z,5.40
2023-01-08T11:40:28.918Z,5.40
2023-01-08T11:43:17.338Z,5.40
2023-01-08T11:45:49.655Z,5.40
2023-01-08T11:48:38.271Z,5.30
2023-01-08T11:51:35.978Z,5.40
2023-01-08T11:54:29.945Z,5.40
2023-01-08T11:57:24.255Z,5.40
2023-01-08T12:00:20.169Z,5.50
2023-01-08T12:03:02.437Z,5.50
2023-01-08T12:06:04.200Z,5.50
2023-01-08T12:08:44.896Z,5.50
2023-01-08T12:11:11.434Z,5.40
2023-01-08T12:13:57.519Z,5.40
2023-01-08T12:16:39.509Z,5.40
2023-01-08T12:19:14.624Z,5.40
2023-01-08T12:22:04.864Z,5.40
2023-01-08T12:24:45.900Z,5.40
2023-01-08T12:27:54.571Z,5.40
2023-01-08T12:30:45.438Z,5.40
2023-01-08T12:33:34.742Z,5.30
2023-01-08T12:36:07.727Z,5.20
2023-01-08T12:38:42.618Z,5.20
2023-01-08T12:41:19.298Z,5.20
2023-01-08T12:48:18.277Z,5.20
2023-01-08T12:51:01.033Z,5.20
2023-01-08T12:53:41.941Z,5.20
2023-01-08T12:56:34.976Z,5.20
2023-01-08T12:59:04.230Z,5.20
2023-01-08T13:01:37.810Z,5.20
2023-01-08T13:04:07.521Z,5.20
2023-01-08T13:06:35.139Z,5.20
2023-01-08T13:09:02.068Z,5.20
2023-01-08T13:11:31.623Z,5.20
2023-01-08T13:14:10.885Z,5.20
2023-01-08T13:16:43.874Z,5.20
2023-01-08T13:19:28.194Z,5.30
2023-01-08T13:21:57.497Z,5.20
2023-01-08T13:24:41.217Z,5.20
2023-01-08T13:27:16.636Z,5.20
2023-01-08T13:29:48.760Z,5.30
2023-01-08T13:32:44.909Z,5.30
2023-01-08T13:35:13.974Z,5.30
2023-01-08T13:37:48.763Z,5.30
2023-01-08T13:40:42.997Z,5.20
2023-01-08T13:43:24.788Z,5.20
2023-01-08T13:45:59.979Z,5.20
2023-01-08T13:48:30.265Z,5.20
2023-01-08T13:50:56.725Z,5.20
2023-01-08T13:53:24.101Z,5.20
2023-01-08T13:56:06.075Z,5.20
2023-01-08T13:58:40.295Z,5.20
2023-01-08T14:01:09.071Z,5.20
2023-01-08T14:03:37.883Z,5.10
2023-01-08T14:06:12.923Z,5.20
2023-01-08T14:09:00.761Z,5.10
2023-01-08T14:11:32.310Z,5.10
2023-01-08T14:13:59.207Z,5.10
2023-01-08T14:16:25.763Z,5.10
2023-01-08T14:18:59.395Z,5.00
2023-01-08T14:21:26.565Z,5.00
2023-01-08T14:23:53.617Z,5.00
2023-01-08T14:26:31.181Z,5.00
2023-01-08T14:28:58.617Z,4.90
2023-01-08T14:31:26.890Z,4.90
2023-01-08T14:33:58.576Z,4.90
2023-01-08T14:36:25.799Z,4.90
2023-01-08T14:38:53.135Z,4.90
2023-01-08T14:41:46.161Z,4.90
2023-01-08T14:44:13.999Z,4.90
2023-01-08T14:46:46.069Z,4.90
2023-01-08T14:49:31.496Z,4.90
2023-01-08T14:51:59.735Z,4.90
2023-01-08T14:54:32.509Z,4.90
2023-01-08T14:57:00.910Z,4.90
2023-01-08T14:59:37.195Z,4.90
2023-01-08T15:02:07.589Z,4.90
2023-01-08T15:04:34.380Z,4.80
2023-01-08T15:07:27.003Z,4.80
2023-01-08T15:10:03.079Z,4.80
2023-01-08T15:12:31.626Z,4.80
2023-01-08T15:15:11.673Z,4.80
2023-01-08T15:17:39.394Z,4.70
2023-01-08T15:20:14.990Z,4.60
2023-01-08T15:22:44.912Z,4.50
2023-01-08T15:25:37.579Z,4.40
2023-01-08T15:28:04.374Z,4.30
2023-01-08T15:30:37.497Z,4.30
2023-01-08T15:33:16.873Z,4.40
2023-01-08T15:35:43.579Z,4.40
2023-01-08T15:38:09.822Z,4.40
2023-01-08T15:40:36.373Z,4.40
2023-01-08T15:43:11.469Z,4.40
2023-01-08T15:45:44.697Z,4.40
2023-01-08T15:48:11.417Z,4.40
2023-01-08T15:50:41.208Z,4.40
2023-01-08T15:53:29.961Z,4.40
2023-01-08T15:55:56.522Z,4.40
2023-01-08T15:58:22.893Z,4.40
2023-01-08T16:00:49.748Z,4.30
2023-01-08T16:03:16.550Z,4.20
2023-01-08T16:05:43.617Z,4.20
2023-01-08T16:08:10.788Z,4.10
2023-01-08T16:10:37.668Z,4.10
2023-01-08T16:13:04.001Z,4.10
2023-01-08T16:15:30.712Z,4.00
2023-01-08T16:17:58.517Z,4.00
2023-01-08T16:20:25.445Z,4.00
2023-01-08T16:22:51.927Z,4.00
2023-01-08T16:25:18.563Z,4.00
2023-01-08T16:27:44.827Z,4.00
2023-01-08T16:30:16.488Z,3.90
2023-01-08T16:32:43.243Z,4.00
2023-01-08T16:35:10.799Z,4.00
2023-01-08T16:37:38.081Z,3.90
2023-01-08T16:40:05.409Z,3.90
2023-01-08T16:42:31.796Z,3.90
2023-01-08T16:44:58.457Z,3.90
2023-01-08T16:47:24.796Z,3.90
2023-01-08T16:49:51.917Z,3.90
2023-01-08T16:52:18.350Z,3.90
2023-01-08T16:54:45.618Z,3.80
2023-01-08T16:57:12.092Z,3.80
2023-01-08T16:59:38.922Z,3.80
2023-01-08T17:02:05.557Z,3.80
2023-01-08T17:04:32.316Z,3.80
2023-01-08T17:06:58.922Z,3.70
2023-01-08T17:09:25.509Z,3.70
2023-01-08T17:11:51.971Z,3.80
2023-01-08T17:14:18.562Z,3.70
2023-01-08T17:16:46.680Z,3.70
2023-01-08T17:19:14.012Z,3.70
2023-01-08T17:21:40.800Z,3.70
2023-01-08T17:24:08.554Z,3.70
2023-01-08T17:26:35.026Z,3.70
2023-01-08T17:29:01.644Z,3.70
2023-01-08T17:31:28.148Z,3.70
2023-01-08T17:33:54.757Z,3.70
2023-01-08T17:36:25.915Z,3.70
2023-01-08T17:38:53.687Z,3.60
2023-01-08T17:41:39.647Z,3.60
2023-01-08T17:44:08.263Z,3.60
2023-01-08T17:46:36.147Z,3.60
2023-01-08T17:49:03.445Z,3.60
2023-01-08T17:51:31.617Z,3.60
2023-01-08T17:53:59.168Z,3.60
2023-01-08T17:56:25.695Z,3.60
2023-01-08T17:58:52.645Z,3.60
2023-01-08T18:01:19.307Z,3.50
2023-01-08T18:03:46.038Z,3.50
2023-01-08T18:06:12.942Z,3.50
2023-01-08T18:08:40.863Z,3.50
2023-01-08T18:11:08.967Z,3.50
2023-01-08T18:13:36.347Z,3.50
2023-01-08T18:16:05.548Z,3.40
2023-01-08T18:18:32.949Z,3.50
2023-01-08T18:20:59.355Z,3.40
2023-01-08T18:23:26.820Z,3.40
2023-01-08T18:25:53.085Z,3.40
2023-01-08T18:28:19.712Z,3.40
2023-01-08T18:30:46.027Z,3.30
2023-01-08T18:33:13.684Z,3.30
2023-01-08T18:35:40.985Z,3.40
2023-01-08T18:38:15.157Z,3.30
2023-01-08T18:40:45.383Z,3.30
2023-01-08T18:43:12.248Z,3.30
2023-01-08T18:45:38.839Z,3.30
2023-01-08T18:48:07.049Z,3.40
2023-01-08T18:50:33.470Z,3.30
2023-01-08T18:53:03.079Z,3.40
2023-01-08T18:55:29.814Z,3.40
2023-01-08T18:57:56.517Z,3.40
2023-01-08T19:00:25.500Z,3.40
2023-01-08T19:02:52.836Z,3.40
2023-01-08T19:05:19.575Z,3.40
2023-01-08T19:07:46.152Z,3.50
2023-01-08T19:10:12.846Z,3.40
2023-01-08T19:12:39.696Z,3.40
2023-01-08T19:15:06.547Z,3.40
2023-01-08T19:17:33.099Z,3.40
2023-01-08T19:19:59.383Z,3.40
2023-01-08T19:22:26.269Z,3.40
2023-01-08T19:24:53.758Z,3.40
2023-01-08T19:27:20.692Z,3.40
2023-01-08T19:29:47.023Z,3.40
2023-01-08T19:32:13.849Z,3.40
2023-01-08T19:34:40.382Z,3.30
2023-01-08T19:37:07.036Z,3.30
2023-01-08T19:39:33.284Z,3.30
2023-01-08T19:42:19.283Z,3.20
2023-01-08T19:44:45.627Z,3.30
2023-01-08T19:47:12.430Z,3.20
2023-01-08T19:49:42.215Z,3.30
2023-01-08T19:52:09.034Z,3.30
2023-01-08T19:54:37.070Z,3.30
2023-01-08T19:57:03.718Z,3.30
2023-01-08T19:59:29.987Z,3.30
2023-01-08T20:01:56.736Z,3.30
2023-01-08T20:04:23.153Z,3.30
2023-01-08T20:06:51.670Z,3.30
2023-01-08T20:09:18.064Z,3.30
2023-01-08T20:11:44.824Z,3.30
2023-01-08T20:14:11.128Z,3.30
2023-01-08T20:16:37.809Z,3.30
2023-01-08T20:19:04.272Z,3.30
2023-01-08T20:21:32.657Z,3.30
2023-01-08T20:24:08.870Z,3.30
2023-01-08T20:26:36.505Z,3.20
2023-01-08T20:29:03.902Z,3.20
2023-01-08T20:31:32.251Z,3.20
2023-01-08T20:34:00.573Z,3.20
2023-01-08T20:36:31.197Z,3.10
2023-01-08T20:39:00.671Z,3.10
2023-01-08T20:41:28.163Z,3.10
2023-01-08T20:43:57.684Z,3.10
2023-01-08T20:46:29.035Z,3.20
2023-01-08T20:49:02.827Z,3.20
2023-01-08T20:51:33.977Z,3.20
2023-01-08T20:54:02.134Z,3.20
2023-01-08T20:56:28.994Z,3.20
2023-01-08T20:58:56.804Z,3.30
2023-01-08T21:01:27.342Z,3.30
2023-01-08T21:03:56.140Z,3.30
2023-01-08T21:06:27.068Z,3.30
2023-01-08T21:08:56.010Z,3.30
2023-01-08T21:11:24.094Z,3.30
2023-01-08T21:13:50.876Z,3.30
2023-01-08T21:16:23.214Z,3.30
2023-01-08T21:18:50.464Z,3.30
2023-01-08T21:21:23.321Z,3.30
2023-01-08T21:23:50.153Z,3.30
2023-01-08T21:26:17.523Z,3.30
2023-01-08T21:28:44.925Z,3.30
2023-01-08T21:31:14.797Z,3.30
2023-01-08T21:33:41.425Z,3.40
2023-01-08T21:36:11.163Z,3.40
2023-01-08T21:38:38.172Z,3.40
2023-01-08T21:41:08.080Z,3.40
2023-01-08T21:43:53.135Z,3.40
2023-01-08T21:46:23.712Z,3.40
2023-01-08T21:48:51.590Z,3.50
2023-01-08T21:51:36.546Z,3.40
2023-01-08T21:54:03.334Z,3.50
2023-01-08T21:56:30.517Z,3.50
2023-01-08T21:58:56.891Z,3.50
2023-01-08T22:01:23.546Z,3.60
2023-01-08T22:03:49.936Z,3.60
2023-01-08T22:06:16.876Z,3.60
2023-01-08T22:08:44.481Z,3.60
2023-01-08T22:11:11.096Z,3.60
2023-01-08T22:13:38.561Z,3.60
2023-01-08T22:16:09.049Z,3.60
2023-01-08T22:18:36.604Z,3.60
2023-01-08T22:21:08.819Z,3.60
2023-01-08T22:23:35.512Z,3.60
2023-01-08T22:26:07.836Z,3.50
2023-01-08T22:28:38.574Z,3.60
2023-01-08T22:31:11.503Z,3.60
2023-01-08T22:33:39.087Z,3.60
2023-01-08T22:36:08.959Z,3.60
2023-01-08T22:38:36.074Z,3.60
2023-01-08T22:41:03.219Z,3.60
2023-01-08T22:43:29.532Z,3.60
2023-01-08T22:45:58.438Z,3.60
2023-01-08T22:48:26.485Z,3.60
2023-01-08T22:50:53.178Z,3.50
2023-01-08T22:53:19.921Z,3.50
2023-01-08T22:55:47.728Z,3.50
2023-01-08T22:58:17.267Z,3.40
2023-01-08T23:00:44.513Z,3.40
2023-01-08T23:03:12.602Z,3.40
2023-01-08T23:05:39.382Z,3.30
2023-01-08T23:08:06.902Z,3.30
2023-01-08T23:10:33.829Z,3.20
2023-01-08T23:13:00.496Z,3.20
2023-01-08T23:15:27.323Z,3.10
2023-01-08T23:17:53.619Z,3.10
2023-01-08T23:20:20.568Z,3.00
2023-01-08T23:22:47.882Z,2.90
2023-01-08T23:25:15.059Z,2.90
2023-01-08T23:27:41.473Z,2.80
2023-01-08T23:30:08.818Z,2.80
2023-01-08T23:32:35.220Z,2.70
2023-01-08T23:35:02.156Z,2.70
2023-01-08T23:37:28.385Z,2.70
2023-01-08T23:39:54.975Z,2.70
2023-01-08T23:42:21.439Z,2.70
2023-01-08T23:44:49.022Z,2.70
2023-01-08T23:47:15.355Z,2.70
2023-01-08T23:49:42.023Z,2.60
2023-01-08T23:52:09.307Z,2.60
2023-01-08T23:54:36.193Z,2.60
2023-01-08T23:57:05.452Z,2.60
2023-01-08T23:59:32.349Z,2.60
